sensor_id;sensor_type;location;lat;lon;timestamp;P1;durP1;ratioP1;P2;durP2;ratioP2
16330;SDS011;8275;48.206;16.340;2022-08-27T00:02:22;4.00;;;3.70;;
16330;SDS011;8275;48.206;16.340;2022-08-27T00:04:50;4.35;;;3.97;;
16330;SDS011;8275;48.206;16.340;2022-08-27T00:07:20;3.38;;;3.08;;
16330;SDS011;8275;48.206;16.340;2022-08-27T00:09:49;3.15;;;2.85;;
16330;SDS011;8275;48.206;16.340;2022-08-27T00:12:17;3.28;;;3.08;;
16330;SDS011;8275;48.206;16.340;2022-08-27T00:14:46;4.70;;;3.10;;
16330;SDS011;8275;48.206;16.340;2022-08-27T00:17:14;4.55;;;2.72;;
16330;SDS011;8275;48.206;16.340;2022-08-27T00:19:43;3.10;;;2.80;;
16330;SDS011;8275;48.206;16.340;2022-08-27T00:22:11;3.78;;;2.63;;
16330;SDS011;8275;48.206;16.340;2022-08-27T00:24:41;5.15;;;3.70;;
16330;SDS011;8275;48.206;16.340;2022-08-27T00:27:14;6.75;;;3.42;;
16330;SDS011;8275;48.206;16.340;2022-08-27T00:29:43;2.78;;;2.47;;
16330;SDS011;8275;48.206;16.340;2022-08-27T00:32:12;3.03;;;2.83;;
16330;SDS011;8275;48.206;16.340;2022-08-27T00:34:41;2.83;;;2.63;;
16330;SDS011;8275;48.206;16.340;2022-08-27T00:37:09;5.57;;;2.80;;
16330;SDS011;8275;48.206;16.340;2022-08-27T00:39:38;3.05;;;2.80;;
16330;SDS011;8275;48.206;16.340;2022-08-27T00:42:08;4.38;;;3.38;;
16330;SDS011;8275;48.206;16.340;2022-08-27T00:44:36;3.60;;;2.78;;
16330;SDS011;8275;48.206;16.340;2022-08-27T00:47:06;4.93;;;2.40;;
16330;SDS011;8275;48.206;16.340;2022-08-27T00:49:40;3.00;;;2.80;;
16330;SDS011;8275;48.206;16.340;2022-08-27T00:52:15;3.47;;;3.20;;
16330;SDS011;8275;48.206;16.340;2022-08-27T00:54:50;3.47;;;2.72;;
16330;SDS011;8275;48.206;16.340;2022-08-27T00:57:26;3.40;;;2.83;;
16330;SDS011;8275;48.206;16.340;2022-08-27T00:59:56;3.42;;;3.17;;
16330;SDS011;8275;48.206;16.340;2022-08-27T01:02:24;3.60;;;3.30;;
16330;SDS011;8275;48.206;16.340;2022-08-27T01:04:57;3.17;;;2.75;;
16330;SDS011;8275;48.206;16.340;2022-08-27T01:07:30;4.68;;;3.70;;
16330;SDS011;8275;48.206;16.340;2022-08-27T01:10:02;3.00;;;2.80;;
16330;SDS011;8275;48.206;16.340;2022-08-27T01:12:36;3.55;;;2.75;;
16330;SDS011;8275;48.206;16.340;2022-08-27T01:15:06;2.67;;;2.45;;
16330;SDS011;8275;48.206;16.340;2022-08-27T01:17:45;4.43;;;3.75;;
16330;SDS011;8275;48.206;16.340;2022-08-27T01:20:16;4.40;;;3.58;;
16330;SDS011;8275;48.206;16.340;2022-08-27T01:22:52;2.72;;;2.53;;
16330;SDS011;8275;48.206;16.340;2022-08-27T01:25:31;3.03;;;2.83;;
16330;SDS011;8275;48.206;16.340;2022-08-27T01:27:59;2.97;;;2.70;;
16330;SDS011;8275;48.206;16.340;2022-08-27T01:30:31;3.40;;;3.10;;
16330;SDS011;8275;48.206;16.340;2022-08-27T01:33:00;3.58;;;3.28;;
16330;SDS011;8275;48.206;16.340;2022-08-27T01:35:37;4.15;;;2.95;;
16330;SDS011;8275;48.206;16.340;2022-08-27T01:38:05;3.25;;;2.47;;
16330;SDS011;8275;48.206;16.340;2022-08-27T01:40:56;2.65;;;2.42;;
16330;SDS011;8275;48.206;16.340;2022-08-27T01:43:26;3.08;;;2.88;;
16330;SDS011;8275;48.206;16.340;2022-08-27T01:45:56;2.67;;;2.47;;
16330;SDS011;8275;48.206;16.340;2022-08-27T01:48:26;5.22;;;3.35;;
16330;SDS011;8275;48.206;16.340;2022-08-27T01:50:54;3.17;;;2.88;;
16330;SDS011;8275;48.206;16.340;2022-08-27T01:53:23;4.28;;;3.08;;
16330;SDS011;8275;48.206;16.340;2022-08-27T01:55:54;2.65;;;2.45;;
16330;SDS011;8275;48.206;16.340;2022-08-27T01:58:26;3.20;;;2.90;;
16330;SDS011;8275;48.206;16.340;2022-08-27T02:00:58;3.28;;;2.97;;
16330;SDS011;8275;48.206;16.340;2022-08-27T02:03:32;3.45;;;3.15;;
16330;SDS011;8275;48.206;16.340;2022-08-27T02:06:03;2.92;;;2.72;;
16330;SDS011;8275;48.206;16.340;2022-08-27T02:08:34;3.15;;;2.88;;
16330;SDS011;8275;48.206;16.340;2022-08-27T02:11:05;4.07;;;3.78;;
16330;SDS011;8275;48.206;16.340;2022-08-27T02:13:35;3.03;;;2.83;;
16330;SDS011;8275;48.206;16.340;2022-08-27T02:16:04;3.30;;;3.10;;
16330;SDS011;8275;48.206;16.340;2022-08-27T02:18:34;4.45;;;3.15;;
16330;SDS011;8275;48.206;16.340;2022-08-27T02:21:07;2.83;;;2.63;;
16330;SDS011;8275;48.206;16.340;2022-08-27T02:23:35;3.50;;;3.30;;
16330;SDS011;8275;48.206;16.340;2022-08-27T02:26:06;3.22;;;2.97;;
16330;SDS011;8275;48.206;16.340;2022-08-27T02:28:35;2.83;;;2.63;;
16330;SDS011;8275;48.206;16.340;2022-08-27T02:31:03;3.30;;;3.10;;
16330;SDS011;8275;48.206;16.340;2022-08-27T02:33:32;3.50;;;3.20;;
16330;SDS011;8275;48.206;16.340;2022-08-27T02:36:01;2.88;;;2.67;;
16330;SDS011;8275;48.206;16.340;2022-08-27T02:38:31;4.30;;;2.85;;
16330;SDS011;8275;48.206;16.340;2022-08-27T02:41:00;2.30;;;2.15;;
16330;SDS011;8275;48.206;16.340;2022-08-27T02:43:30;3.30;;;3.00;;
16330;SDS011;8275;48.206;16.340;2022-08-27T02:46:00;3.42;;;3.13;;
16330;SDS011;8275;48.206;16.340;2022-08-27T02:48:29;4.28;;;2.95;;
16330;SDS011;8275;48.206;16.340;2022-08-27T02:50:58;4.03;;;2.88;;
16330;SDS011;8275;48.206;16.340;2022-08-27T02:53:26;4.28;;;3.45;;
16330;SDS011;8275;48.206;16.340;2022-08-27T02:55:55;3.97;;;3.53;;
16330;SDS011;8275;48.206;16.340;2022-08-27T02:58:23;4.35;;;2.80;;
16330;SDS011;8275;48.206;16.340;2022-08-27T03:00:53;4.13;;;3.65;;
16330;SDS011;8275;48.206;16.340;2022-08-27T03:03:22;2.60;;;2.38;;
16330;SDS011;8275;48.206;16.340;2022-08-27T03:05:50;2.25;;;1.98;;
16330;SDS011;8275;48.206;16.340;2022-08-27T03:08:19;3.25;;;2.83;;
16330;SDS011;8275;48.206;16.340;2022-08-27T03:10:49;3.03;;;2.83;;
16330;SDS011;8275;48.206;16.340;2022-08-27T03:13:19;3.33;;;2.35;;
16330;SDS011;8275;48.206;16.340;2022-08-27T03:15:47;3.00;;;2.80;;
16330;SDS011;8275;48.206;16.340;2022-08-27T03:18:18;2.53;;;2.33;;
16330;SDS011;8275;48.206;16.340;2022-08-27T03:20:47;3.92;;;2.35;;
16330;SDS011;8275;48.206;16.340;2022-08-27T03:23:18;3.22;;;2.95;;
16330;SDS011;8275;48.206;16.340;2022-08-27T03:25:50;5.32;;;3.75;;
16330;SDS011;8275;48.206;16.340;2022-08-27T03:28:22;2.58;;;2.38;;
16330;SDS011;8275;48.206;16.340;2022-08-27T03:30:54;2.95;;;2.75;;
16330;SDS011;8275;48.206;16.340;2022-08-27T03:33:28;6.63;;;3.67;;
16330;SDS011;8275;48.206;16.340;2022-08-27T03:35:59;3.72;;;3.15;;
16330;SDS011;8275;48.206;16.340;2022-08-27T03:38:28;2.88;;;2.67;;
16330;SDS011;8275;48.206;16.340;2022-08-27T03:40:56;2.72;;;2.45;;
16330;SDS011;8275;48.206;16.340;2022-08-27T03:43:25;3.42;;;2.88;;
16330;SDS011;8275;48.206;16.340;2022-08-27T03:45:54;2.78;;;2.58;;
16330;SDS011;8275;48.206;16.340;2022-08-27T03:48:29;3.17;;;2.85;;
16330;SDS011;8275;48.206;16.340;2022-08-27T03:50:58;3.20;;;2.50;;
16330;SDS011;8275;48.206;16.340;2022-08-27T03:53:31;3.08;;;2.45;;
16330;SDS011;8275;48.206;16.340;2022-08-27T03:56:01;3.10;;;2.72;;
16330;SDS011;8275;48.206;16.340;2022-08-27T03:58:31;3.05;;;2.72;;
16330;SDS011;8275;48.206;16.340;2022-08-27T04:01:01;2.90;;;2.58;;
16330;SDS011;8275;48.206;16.340;2022-08-27T04:03:31;3.88;;;2.72;;
16330;SDS011;8275;48.206;16.340;2022-08-27T04:06:01;4.70;;;2.60;;
16330;SDS011;8275;48.206;16.340;2022-08-27T04:08:30;3.55;;;2.53;;
16330;SDS011;8275;48.206;16.340;2022-08-27T04:10:58;5.75;;;3.22;;
16330;SDS011;8275;48.206;16.340;2022-08-27T04:13:27;2.55;;;2.33;;
16330;SDS011;8275;48.206;16.340;2022-08-27T04:15:55;3.80;;;2.55;;
16330;SDS011;8275;48.206;16.340;2022-08-27T04:18:24;2.58;;;2.38;;
16330;SDS011;8275;48.206;16.340;2022-08-27T04:20:53;3.20;;;2.90;;
16330;SDS011;8275;48.206;16.340;2022-08-27T04:23:22;2.88;;;2.67;;
16330;SDS011;8275;48.206;16.340;2022-08-27T04:25:51;4.35;;;2.83;;
16330;SDS011;8275;48.206;16.340;2022-08-27T04:28:19;2.88;;;2.38;;
16330;SDS011;8275;48.206;16.340;2022-08-27T04:30:48;5.00;;;3.00;;
16330;SDS011;8275;48.206;16.340;2022-08-27T04:33:16;2.40;;;2.20;;
16330;SDS011;8275;48.206;16.340;2022-08-27T04:35:45;2.83;;;2.58;;
16330;SDS011;8275;48.206;16.340;2022-08-27T04:38:15;4.63;;;3.15;;
16330;SDS011;8275;48.206;16.340;2022-08-27T04:40:43;5.40;;;2.88;;
16330;SDS011;8275;48.206;16.340;2022-08-27T04:43:29;4.20;;;2.80;;
16330;SDS011;8275;48.206;16.340;2022-08-27T04:45:58;3.15;;;2.90;;
16330;SDS011;8275;48.206;16.340;2022-08-27T04:48:27;3.70;;;2.92;;
16330;SDS011;8275;48.206;16.340;2022-08-27T04:50:55;4.57;;;2.75;;
16330;SDS011;8275;48.206;16.340;2022-08-27T04:53:25;16.42;;;3.00;;
16330;SDS011;8275;48.206;16.340;2022-08-27T04:55:54;3.28;;;2.97;;
16330;SDS011;8275;48.206;16.340;2022-08-27T04:58:24;3.53;;;3.22;;
16330;SDS011;8275;48.206;16.340;2022-08-27T05:00:53;4.00;;;3.60;;
16330;SDS011;8275;48.206;16.340;2022-08-27T05:03:27;4.38;;;3.05;;
16330;SDS011;8275;48.206;16.340;2022-08-27T05:05:58;2.90;;;2.28;;
16330;SDS011;8275;48.206;16.340;2022-08-27T05:08:30;6.45;;;2.78;;
16330;SDS011;8275;48.206;16.340;2022-08-27T05:11:00;2.50;;;2.30;;
16330;SDS011;8275;48.206;16.340;2022-08-27T05:13:30;2.58;;;2.38;;
16330;SDS011;8275;48.206;16.340;2022-08-27T05:15:59;2.58;;;2.38;;
16330;SDS011;8275;48.206;16.340;2022-08-27T05:18:31;6.07;;;2.53;;
16330;SDS011;8275;48.206;16.340;2022-08-27T05:21:15;3.35;;;3.05;;
16330;SDS011;8275;48.206;16.340;2022-08-27T05:23:46;3.45;;;3.15;;
16330;SDS011;8275;48.206;16.340;2022-08-27T05:26:16;3.05;;;2.78;;
16330;SDS011;8275;48.206;16.340;2022-08-27T05:28:45;3.70;;;3.25;;
16330;SDS011;8275;48.206;16.340;2022-08-27T05:31:13;2.50;;;2.30;;
16330;SDS011;8275;48.206;16.340;2022-08-27T05:33:44;3.13;;;2.85;;
16330;SDS011;8275;48.206;16.340;2022-08-27T05:36:14;3.75;;;3.45;;
16330;SDS011;8275;48.206;16.340;2022-08-27T05:38:45;3.85;;;2.33;;
16330;SDS011;8275;48.206;16.340;2022-08-27T05:41:16;3.00;;;2.55;;
16330;SDS011;8275;48.206;16.340;2022-08-27T05:43:46;2.97;;;2.78;;
16330;SDS011;8275;48.206;16.340;2022-08-27T05:46:17;3.13;;;2.92;;
16330;SDS011;8275;48.206;16.340;2022-08-27T05:48:51;4.10;;;3.03;;
16330;SDS011;8275;48.206;16.340;2022-08-27T05:51:24;4.93;;;2.72;;
16330;SDS011;8275;48.206;16.340;2022-08-27T05:53:57;3.30;;;2.97;;
16330;SDS011;8275;48.206;16.340;2022-08-27T05:56:34;2.72;;;2.50;;
16330;SDS011;8275;48.206;16.340;2022-08-27T05:59:04;3.95;;;3.17;;
16330;SDS011;8275;48.206;16.340;2022-08-27T06:01:52;3.00;;;2.72;;
16330;SDS011;8275;48.206;16.340;2022-08-27T06:04:23;2.70;;;2.53;;
16330;SDS011;8275;48.206;16.340;2022-08-27T06:06:52;3.42;;;2.80;;
16330;SDS011;8275;48.206;16.340;2022-08-27T06:09:23;4.22;;;2.78;;
16330;SDS011;8275;48.206;16.340;2022-08-27T06:11:54;3.53;;;3.22;;
16330;SDS011;8275;48.206;16.340;2022-08-27T06:14:25;3.08;;;2.85;;
16330;SDS011;8275;48.206;16.340;2022-08-27T06:16:54;2.92;;;2.70;;
16330;SDS011;8275;48.206;16.340;2022-08-27T06:19:23;3.28;;;3.03;;
16330;SDS011;8275;48.206;16.340;2022-08-27T06:21:52;6.53;;;3.10;;
16330;SDS011;8275;48.206;16.340;2022-08-27T06:24:28;3.45;;;3.15;;
16330;SDS011;8275;48.206;16.340;2022-08-27T06:26:56;9.15;;;2.80;;
16330;SDS011;8275;48.206;16.340;2022-08-27T06:29:25;2.80;;;2.60;;
16330;SDS011;8275;48.206;16.340;2022-08-27T06:31:53;3.72;;;3.42;;
16330;SDS011;8275;48.206;16.340;2022-08-27T06:34:22;4.43;;;3.03;;
16330;SDS011;8275;48.206;16.340;2022-08-27T06:36:50;4.32;;;3.22;;
16330;SDS011;8275;48.206;16.340;2022-08-27T06:39:19;3.78;;;3.13;;
16330;SDS011;8275;48.206;16.340;2022-08-27T06:41:49;3.85;;;3.03;;
16330;SDS011;8275;48.206;16.340;2022-08-27T06:44:18;4.28;;;3.53;;
16330;SDS011;8275;48.206;16.340;2022-08-27T06:46:47;3.30;;;3.00;;
16330;SDS011;8275;48.206;16.340;2022-08-27T06:49:16;4.15;;;3.85;;
16330;SDS011;8275;48.206;16.340;2022-08-27T06:51:46;3.95;;;2.55;;
16330;SDS011;8275;48.206;16.340;2022-08-27T06:54:14;5.78;;;3.30;;
16330;SDS011;8275;48.206;16.340;2022-08-27T06:56:45;4.20;;;3.80;;
16330;SDS011;8275;48.206;16.340;2022-08-27T06:59:16;3.95;;;3.35;;
16330;SDS011;8275;48.206;16.340;2022-08-27T07:01:47;2.50;;;2.30;;
16330;SDS011;8275;48.206;16.340;2022-08-27T07:04:18;3.88;;;3.47;;
16330;SDS011;8275;48.206;16.340;2022-08-27T07:06:57;3.95;;;3.20;;
16330;SDS011;8275;48.206;16.340;2022-08-27T07:09:27;3.78;;;3.38;;
16330;SDS011;8275;48.206;16.340;2022-08-27T07:11:57;3.35;;;3.10;;
16330;SDS011;8275;48.206;16.340;2022-08-27T07:14:28;3.75;;;3.45;;
16330;SDS011;8275;48.206;16.340;2022-08-27T07:17:03;4.10;;;3.70;;
16330;SDS011;8275;48.206;16.340;2022-08-27T07:19:40;3.42;;;3.13;;
16330;SDS011;8275;48.206;16.340;2022-08-27T07:22:10;5.70;;;2.10;;
16330;SDS011;8275;48.206;16.340;2022-08-27T07:24:39;2.88;;;2.67;;
16330;SDS011;8275;48.206;16.340;2022-08-27T07:27:07;3.60;;;3.30;;
16330;SDS011;8275;48.206;16.340;2022-08-27T07:29:38;2.72;;;2.53;;
16330;SDS011;8275;48.206;16.340;2022-08-27T07:32:06;3.20;;;2.92;;
16330;SDS011;8275;48.206;16.340;2022-08-27T07:34:35;3.83;;;3.47;;
16330;SDS011;8275;48.206;16.340;2022-08-27T07:37:03;3.90;;;3.42;;
16330;SDS011;8275;48.206;16.340;2022-08-27T07:39:32;2.70;;;2.53;;
16330;SDS011;8275;48.206;16.340;2022-08-27T07:42:00;2.47;;;2.28;;
16330;SDS011;8275;48.206;16.340;2022-08-27T07:44:47;3.42;;;3.00;;
16330;SDS011;8275;48.206;16.340;2022-08-27T07:47:16;2.90;;;2.70;;
16330;SDS011;8275;48.206;16.340;2022-08-27T07:49:45;2.47;;;2.17;;
16330;SDS011;8275;48.206;16.340;2022-08-27T07:52:13;3.72;;;2.90;;
16330;SDS011;8275;48.206;16.340;2022-08-27T07:54:42;2.90;;;2.70;;
16330;SDS011;8275;48.206;16.340;2022-08-27T07:57:11;4.28;;;2.97;;
16330;SDS011;8275;48.206;16.340;2022-08-27T07:59:39;5.38;;;4.05;;
16330;SDS011;8275;48.206;16.340;2022-08-27T08:02:09;4.90;;;3.67;;
16330;SDS011;8275;48.206;16.340;2022-08-27T08:04:38;4.93;;;3.08;;
16330;SDS011;8275;48.206;16.340;2022-08-27T08:07:07;4.63;;;3.55;;
16330;SDS011;8275;48.206;16.340;2022-08-27T08:09:35;2.60;;;2.40;;
16330;SDS011;8275;48.206;16.340;2022-08-27T08:12:04;3.80;;;3.10;;
16330;SDS011;8275;48.206;16.340;2022-08-27T08:14:33;3.35;;;3.05;;
16330;SDS011;8275;48.206;16.340;2022-08-27T08:17:03;3.90;;;3.25;;
16330;SDS011;8275;48.206;16.340;2022-08-27T08:19:37;5.28;;;3.85;;
16330;SDS011;8275;48.206;16.340;2022-08-27T08:22:06;3.60;;;3.30;;
16330;SDS011;8275;48.206;16.340;2022-08-27T08:24:35;5.35;;;3.05;;
16330;SDS011;8275;48.206;16.340;2022-08-27T08:27:03;5.15;;;3.65;;
16330;SDS011;8275;48.206;16.340;2022-08-27T08:29:33;5.30;;;3.58;;
16330;SDS011;8275;48.206;16.340;2022-08-27T08:32:03;5.28;;;3.80;;
16330;SDS011;8275;48.206;16.340;2022-08-27T08:34:33;3.63;;;2.83;;
16330;SDS011;8275;48.206;16.340;2022-08-27T08:37:04;3.90;;;3.55;;
16330;SDS011;8275;48.206;16.340;2022-08-27T08:39:34;4.30;;;3.90;;
16330;SDS011;8275;48.206;16.340;2022-08-27T08:42:04;5.03;;;3.83;;
16330;SDS011;8275;48.206;16.340;2022-08-27T08:44:37;6.22;;;3.75;;
16330;SDS011;8275;48.206;16.340;2022-08-27T08:47:14;3.75;;;3.47;;
16330;SDS011;8275;48.206;16.340;2022-08-27T08:49:50;4.20;;;3.20;;
16330;SDS011;8275;48.206;16.340;2022-08-27T08:52:27;4.07;;;3.65;;
16330;SDS011;8275;48.206;16.340;2022-08-27T08:55:09;2.95;;;2.75;;
16330;SDS011;8275;48.206;16.340;2022-08-27T08:57:51;4.10;;;3.70;;
16330;SDS011;8275;48.206;16.340;2022-08-27T09:00:29;3.50;;;3.10;;
16330;SDS011;8275;48.206;16.340;2022-08-27T09:02:58;5.32;;;4.28;;
16330;SDS011;8275;48.206;16.340;2022-08-27T09:05:26;4.18;;;3.78;;
16330;SDS011;8275;48.206;16.340;2022-08-27T09:08:00;4.10;;;3.70;;
16330;SDS011;8275;48.206;16.340;2022-08-27T09:10:58;3.47;;;3.17;;
16330;SDS011;8275;48.206;16.340;2022-08-27T09:13:38;5.18;;;3.03;;
16330;SDS011;8275;48.206;16.340;2022-08-27T09:16:10;5.40;;;3.65;;
16330;SDS011;8275;48.206;16.340;2022-08-27T09:18:39;4.10;;;3.70;;
16330;SDS011;8275;48.206;16.340;2022-08-27T09:21:15;3.58;;;3.28;;
16330;SDS011;8275;48.206;16.340;2022-08-27T09:24:06;3.72;;;3.50;;
16330;SDS011;8275;48.206;16.340;2022-08-27T09:26:41;4.95;;;3.53;;
16330;SDS011;8275;48.206;16.340;2022-08-27T09:29:12;5.93;;;4.20;;
16330;SDS011;8275;48.206;16.340;2022-08-27T09:31:47;3.78;;;3.47;;
16330;SDS011;8275;48.206;16.340;2022-08-27T09:34:21;5.07;;;3.53;;
16330;SDS011;8275;48.206;16.340;2022-08-27T09:36:56;3.08;;;2.78;;
16330;SDS011;8275;48.206;16.340;2022-08-27T09:39:33;3.40;;;3.20;;
16330;SDS011;8275;48.206;16.340;2022-08-27T09:42:18;3.92;;;3.55;;
16330;SDS011;8275;48.206;16.340;2022-08-27T09:44:57;4.25;;;3.90;;
16330;SDS011;8275;48.206;16.340;2022-08-27T09:47:26;4.18;;;3.88;;
16330;SDS011;8275;48.206;16.340;2022-08-27T09:50:01;5.22;;;4.03;;
16330;SDS011;8275;48.206;16.340;2022-08-27T09:52:37;4.47;;;4.13;;
16330;SDS011;8275;48.206;16.340;2022-08-27T09:55:29;4.20;;;3.80;;
16330;SDS011;8275;48.206;16.340;2022-08-27T09:58:14;4.63;;;3.97;;
16330;SDS011;8275;48.206;16.340;2022-08-27T10:00:46;4.68;;;4.30;;
16330;SDS011;8275;48.206;16.340;2022-08-27T10:03:24;4.72;;;4.38;;
16330;SDS011;8275;48.206;16.340;2022-08-27T10:05:58;4.22;;;3.92;;
16330;SDS011;8275;48.206;16.340;2022-08-27T10:08:28;4.13;;;3.72;;
16330;SDS011;8275;48.206;16.340;2022-08-27T10:11:10;4.47;;;4.07;;
16330;SDS011;8275;48.206;16.340;2022-08-27T10:13:48;4.88;;;3.95;;
16330;SDS011;8275;48.206;16.340;2022-08-27T10:16:35;4.25;;;3.95;;
16330;SDS011;8275;48.206;16.340;2022-08-27T10:19:36;4.50;;;4.10;;
16330;SDS011;8275;48.206;16.340;2022-08-27T10:22:24;5.95;;;4.35;;
16330;SDS011;8275;48.206;16.340;2022-08-27T10:25:09;6.30;;;3.78;;
16330;SDS011;8275;48.206;16.340;2022-08-27T10:27:52;4.38;;;4.07;;
16330;SDS011;8275;48.206;16.340;2022-08-27T10:30:32;4.30;;;3.90;;
16330;SDS011;8275;48.206;16.340;2022-08-27T10:33:22;6.57;;;3.83;;
16330;SDS011;8275;48.206;16.340;2022-08-27T10:36:04;3.53;;;3.33;;
16330;SDS011;8275;48.206;16.340;2022-08-27T10:38:46;3.92;;;3.63;;
16330;SDS011;8275;48.206;16.340;2022-08-27T10:41:24;6.20;;;4.25;;
16330;SDS011;8275;48.206;16.340;2022-08-27T10:44:06;7.03;;;4.00;;
16330;SDS011;8275;48.206;16.340;2022-08-27T10:47:14;4.57;;;4.18;;
16330;SDS011;8275;48.206;16.340;2022-08-27T10:50:01;5.50;;;4.63;;
16330;SDS011;8275;48.206;16.340;2022-08-27T10:52:35;3.70;;;3.35;;
16330;SDS011;8275;48.206;16.340;2022-08-27T10:55:11;4.63;;;4.22;;
16330;SDS011;8275;48.206;16.340;2022-08-27T10:57:53;4.57;;;3.88;;
16330;SDS011;8275;48.206;16.340;2022-08-27T11:00:52;5.20;;;3.60;;
16330;SDS011;8275;48.206;16.340;2022-08-27T11:03:32;5.35;;;4.20;;
16330;SDS011;8275;48.206;16.340;2022-08-27T11:06:09;4.50;;;4.15;;
16330;SDS011;8275;48.206;16.340;2022-08-27T11:08:58;3.83;;;3.53;;
16330;SDS011;8275;48.206;16.340;2022-08-27T11:11:36;4.97;;;4.55;;
16330;SDS011;8275;48.206;16.340;2022-08-27T11:14:29;3.78;;;3.47;;
16330;SDS011;8275;48.206;16.340;2022-08-27T11:17:05;5.03;;;3.90;;
16330;SDS011;8275;48.206;16.340;2022-08-27T11:19:42;4.72;;;4.30;;
16330;SDS011;8275;48.206;16.340;2022-08-27T11:22:21;4.95;;;4.00;;
16330;SDS011;8275;48.206;16.340;2022-08-27T11:24:58;4.10;;;3.85;;
16330;SDS011;8275;48.206;16.340;2022-08-27T11:27:36;3.63;;;3.42;;
16330;SDS011;8275;48.206;16.340;2022-08-27T11:30:06;3.85;;;3.55;;
16330;SDS011;8275;48.206;16.340;2022-08-27T11:33:00;4.78;;;4.13;;
16330;SDS011;8275;48.206;16.340;2022-08-27T11:35:41;4.60;;;3.40;;
16330;SDS011;8275;48.206;16.340;2022-08-27T11:38:52;4.43;;;4.05;;
16330;SDS011;8275;48.206;16.340;2022-08-27T11:41:38;4.75;;;4.25;;
16330;SDS011;8275;48.206;16.340;2022-08-27T11:44:38;4.60;;;4.20;;
16330;SDS011;8275;48.206;16.340;2022-08-27T11:47:10;4.05;;;3.72;;
16330;SDS011;8275;48.206;16.340;2022-08-27T11:49:48;4.85;;;3.72;;
16330;SDS011;8275;48.206;16.340;2022-08-27T11:52:20;6.28;;;4.00;;
16330;SDS011;8275;48.206;16.340;2022-08-27T11:54:55;5.18;;;4.22;;
16330;SDS011;8275;48.206;16.340;2022-08-27T11:57:39;3.72;;;3.42;;
16330;SDS011;8275;48.206;16.340;2022-08-27T12:00:16;3.47;;;3.25;;
16330;SDS011;8275;48.206;16.340;2022-08-27T12:03:00;3.45;;;3.15;;
16330;SDS011;8275;48.206;16.340;2022-08-27T12:05:38;3.88;;;3.60;;
16330;SDS011;8275;48.206;16.340;2022-08-27T12:08:17;3.28;;;3.08;;
16330;SDS011;8275;48.206;16.340;2022-08-27T12:11:08;3.67;;;3.40;;
16330;SDS011;8275;48.206;16.340;2022-08-27T12:13:54;3.50;;;3.20;;
16330;SDS011;8275;48.206;16.340;2022-08-27T12:16:34;3.25;;;2.95;;
16330;SDS011;8275;48.206;16.340;2022-08-27T12:19:24;3.83;;;3.60;;
16330;SDS011;8275;48.206;16.340;2022-08-27T12:22:17;4.45;;;3.28;;
16330;SDS011;8275;48.206;16.340;2022-08-27T12:25:24;4.07;;;3.67;;
16330;SDS011;8275;48.206;16.340;2022-08-27T12:27:54;4.57;;;3.40;;
16330;SDS011;8275;48.206;16.340;2022-08-27T12:30:27;4.05;;;3.65;;
16330;SDS011;8275;48.206;16.340;2022-08-27T12:33:04;4.68;;;4.28;;
16330;SDS011;8275;48.206;16.340;2022-08-27T12:35:42;5.97;;;3.65;;
16330;SDS011;8275;48.206;16.340;2022-08-27T12:38:17;4.18;;;3.88;;
16330;SDS011;8275;48.206;16.340;2022-08-27T12:40:53;3.40;;;3.10;;
16330;SDS011;8275;48.206;16.340;2022-08-27T12:43:29;3.97;;;3.25;;
16330;SDS011;8275;48.206;16.340;2022-08-27T12:45:59;9.25;;;3.90;;
16330;SDS011;8275;48.206;16.340;2022-08-27T12:48:36;4.10;;;3.80;;
16330;SDS011;8275;48.206;16.340;2022-08-27T12:51:11;3.63;;;3.33;;
16330;SDS011;8275;48.206;16.340;2022-08-27T12:53:53;5.07;;;4.68;;
16330;SDS011;8275;48.206;16.340;2022-08-27T12:56:43;4.63;;;3.63;;
16330;SDS011;8275;48.206;16.340;2022-08-27T13:02:43;7.78;;;4.00;;
16330;SDS011;8275;48.206;16.340;2022-08-27T13:05:47;4.07;;;3.80;;
16330;SDS011;8275;48.206;16.340;2022-08-27T13:08:23;3.92;;;3.50;;
16330;SDS011;8275;48.206;16.340;2022-08-27T13:11:05;3.95;;;3.65;;
16330;SDS011;8275;48.206;16.340;2022-08-27T13:13:39;4.40;;;3.65;;
16330;SDS011;8275;48.206;16.340;2022-08-27T13:16:08;10.63;;;3.88;;
16330;SDS011;8275;48.206;16.340;2022-08-27T13:18:37;4.28;;;3.92;;
16330;SDS011;8275;48.206;16.340;2022-08-27T13:21:07;3.95;;;3.65;;
16330;SDS011;8275;48.206;16.340;2022-08-27T13:23:52;5.60;;;4.38;;
16330;SDS011;8275;48.206;16.340;2022-08-27T13:26:25;7.97;;;3.88;;
16330;SDS011;8275;48.206;16.340;2022-08-27T13:28:56;3.88;;;3.58;;
16330;SDS011;8275;48.206;16.340;2022-08-27T13:31:29;3.90;;;3.53;;
16330;SDS011;8275;48.206;16.340;2022-08-27T13:33:59;3.83;;;3.47;;
16330;SDS011;8275;48.206;16.340;2022-08-27T13:36:32;3.28;;;2.97;;
16330;SDS011;8275;48.206;16.340;2022-08-27T13:39:19;4.28;;;3.97;;
16330;SDS011;8275;48.206;16.340;2022-08-27T13:41:49;3.85;;;3.55;;
16330;SDS011;8275;48.206;16.340;2022-08-27T13:44:19;3.88;;;3.60;;
16330;SDS011;8275;48.206;16.340;2022-08-27T13:46:52;4.00;;;3.70;;
16330;SDS011;8275;48.206;16.340;2022-08-27T13:49:27;8.35;;;6.85;;
16330;SDS011;8275;48.206;16.340;2022-08-27T13:52:05;5.22;;;4.82;;
16330;SDS011;8275;48.206;16.340;2022-08-27T13:54:42;4.55;;;4.18;;
16330;SDS011;8275;48.206;16.340;2022-08-27T13:57:21;3.92;;;3.63;;
16330;SDS011;8275;48.206;16.340;2022-08-27T13:59:51;4.43;;;3.85;;
16330;SDS011;8275;48.206;16.340;2022-08-27T14:02:23;4.55;;;3.85;;
16330;SDS011;8275;48.206;16.340;2022-08-27T14:05:09;4.03;;;3.70;;
16330;SDS011;8275;48.206;16.340;2022-08-27T14:07:42;12.13;;;4.25;;
16330;SDS011;8275;48.206;16.340;2022-08-27T14:10:25;3.58;;;3.28;;
16330;SDS011;8275;48.206;16.340;2022-08-27T14:13:02;3.38;;;3.08;;
16330;SDS011;8275;48.206;16.340;2022-08-27T14:15:33;4.65;;;4.20;;
16330;SDS011;8275;48.206;16.340;2022-08-27T14:18:05;4.03;;;3.63;;
16330;SDS011;8275;48.206;16.340;2022-08-27T14:21:06;5.53;;;3.42;;
16330;SDS011;8275;48.206;16.340;2022-08-27T14:23:35;4.63;;;4.22;;
16330;SDS011;8275;48.206;16.340;2022-08-27T14:26:03;3.97;;;3.40;;
16330;SDS011;8275;48.206;16.340;2022-08-27T14:28:33;4.88;;;4.45;;
16330;SDS011;8275;48.206;16.340;2022-08-27T14:31:02;6.18;;;4.75;;
16330;SDS011;8275;48.206;16.340;2022-08-27T14:33:31;4.20;;;3.83;;
16330;SDS011;8275;48.206;16.340;2022-08-27T14:35:59;4.18;;;3.80;;
16330;SDS011;8275;48.206;16.340;2022-08-27T14:38:28;5.18;;;3.78;;
16330;SDS011;8275;48.206;16.340;2022-08-27T14:40:58;6.32;;;5.07;;
16330;SDS011;8275;48.206;16.340;2022-08-27T14:43:33;5.20;;;4.55;;
16330;SDS011;8275;48.206;16.340;2022-08-27T14:46:02;6.90;;;3.85;;
16330;SDS011;8275;48.206;16.340;2022-08-27T14:48:34;3.58;;;3.28;;
16330;SDS011;8275;48.206;16.340;2022-08-27T14:51:05;4.70;;;3.97;;
16330;SDS011;8275;48.206;16.340;2022-08-27T14:53:39;3.70;;;3.40;;
16330;SDS011;8275;48.206;16.340;2022-08-27T14:56:08;4.18;;;3.78;;
16330;SDS011;8275;48.206;16.340;2022-08-27T14:58:37;4.20;;;3.88;;
16330;SDS011;8275;48.206;16.340;2022-08-27T15:01:06;6.88;;;4.50;;
16330;SDS011;8275;48.206;16.340;2022-08-27T15:03:36;4.93;;;4.45;;
16330;SDS011;8275;48.206;16.340;2022-08-27T15:06:09;5.35;;;3.95;;
16330;SDS011;8275;48.206;16.340;2022-08-27T15:08:39;4.38;;;3.97;;
16330;SDS011;8275;48.206;16.340;2022-08-27T15:11:11;7.47;;;4.25;;
16330;SDS011;8275;48.206;16.340;2022-08-27T15:13:46;4.25;;;3.38;;
16330;SDS011;8275;48.206;16.340;2022-08-27T15:16:15;5.25;;;3.80;;
16330;SDS011;8275;48.206;16.340;2022-08-27T15:18:53;3.45;;;3.15;;
16330;SDS011;8275;48.206;16.340;2022-08-27T15:21:26;5.35;;;4.28;;
16330;SDS011;8275;48.206;16.340;2022-08-27T15:23:57;4.78;;;4.35;;
16330;SDS011;8275;48.206;16.340;2022-08-27T15:26:28;11.63;;;4.80;;
16330;SDS011;8275;48.206;16.340;2022-08-27T15:28:58;6.13;;;4.45;;
16330;SDS011;8275;48.206;16.340;2022-08-27T15:31:32;4.28;;;3.95;;